sensor_id;sensor_type;location;lat;lon;timestamp;pressure;altitude;pressure_sealevel;temperature;humidity
69239;BME280;56349;51.816;-0.026;2022-08-21T00:01:26;100978.28;;;29.78;24.73
69239;BME280;56349;51.816;-0.026;2022-08-21T00:03:48;100979.02;;;29.71;24.75
69239;BME280;56349;51.816;-0.026;2022-08-21T00:06:14;100977.71;;;29.89;24.79
69239;BME280;56349;51.816;-0.026;2022-08-21T00:08:40;100976.89;;;29.48;24.89
69239;BME280;56349;51.816;-0.026;2022-08-21T00:11:06;100974.23;;;29.59;24.99
69239;BME280;56349;51.816;-0.026;2022-08-21T00:13:31;100973.28;;;29.44;25.10
69239;BME280;56349;51.816;-0.026;2022-08-21T00:15:57;100974.16;;;29.27;25.21
69239;BME280;56349;51.816;-0.026;2022-08-21T00:18:23;100970.38;;;29.12;25.35
69239;BME280;56349;51.816;-0.026;2022-08-21T00:20:49;100969.21;;;28.98;25.46
69239;BME280;56349;51.816;-0.026;2022-08-21T00:23:15;100968.26;;;28.83;25.59
69239;BME280;56349;51.816;-0.026;2022-08-21T00:25:42;100969.99;;;28.73;25.65
69239;BME280;56349;51.816;-0.026;2022-08-21T00:28:06;100972.00;;;28.60;25.77
69239;BME280;56349;51.816;-0.026;2022-08-21T00:30:34;100973.14;;;29.20;25.89
69239;BME280;56349;51.816;-0.026;2022-08-21T00:32:58;100971.20;;;28.79;26.01
69239;BME280;56349;51.816;-0.026;2022-08-21T00:35:27;100969.79;;;28.68;26.12
69239;BME280;56349;51.816;-0.026;2022-08-21T00:37:49;100967.00;;;28.59;26.21
69239;BME280;56349;51.816;-0.026;2022-08-21T00:40:20;100967.64;;;28.50;26.30
69239;BME280;56349;51.816;-0.026;2022-08-21T00:42:42;100963.74;;;28.41;26.38
69239;BME280;56349;51.816;-0.026;2022-08-21T00:45:08;100960.28;;;28.59;26.46
69239;BME280;56349;51.816;-0.026;2022-08-21T00:47:32;100955.26;;;28.24;26.55
69239;BME280;56349;51.816;-0.026;2022-08-21T00:49:58;100953.12;;;28.17;26.62
69239;BME280;56349;51.816;-0.026;2022-08-21T00:52:28;100953.58;;;28.35;26.70
69239;BME280;56349;51.816;-0.026;2022-08-21T00:54:50;100956.02;;;28.28;26.77
69239;BME280;56349;51.816;-0.026;2022-08-21T00:57:19;100953.67;;;28.45;26.83
69239;BME280;56349;51.816;-0.026;2022-08-21T00:59:41;100950.05;;;28.38;26.91
69239;BME280;56349;51.816;-0.026;2022-08-21T01:02:07;100946.26;;;28.09;26.97
69239;BME280;56349;51.816;-0.026;2022-08-21T01:04:31;100945.62;;;28.02;27.05
69239;BME280;56349;51.816;-0.026;2022-08-21T01:06:57;100945.70;;;27.96;27.11
69239;BME280;56349;51.816;-0.026;2022-08-21T01:09:23;100943.73;;;28.11;27.19
69239;BME280;56349;51.816;-0.026;2022-08-21T01:11:49;100943.39;;;27.84;27.24
69239;BME280;56349;51.816;-0.026;2022-08-21T01:14:14;100940.61;;;28.02;27.29
69239;BME280;56349;51.816;-0.026;2022-08-21T01:16:40;100936.90;;;27.99;27.35
69239;BME280;56349;51.816;-0.026;2022-08-21T01:19:06;100937.43;;;27.96;27.38
69239;BME280;56349;51.816;-0.026;2022-08-21T01:21:30;100939.22;;;27.93;27.40
69239;BME280;56349;51.816;-0.026;2022-08-21T01:23:57;100943.32;;;27.88;27.46
69239;BME280;56349;51.816;-0.026;2022-08-21T01:26:24;100943.28;;;27.84;27.51
69239;BME280;56349;51.816;-0.026;2022-08-21T01:28:52;100945.22;;;27.81;27.54
69239;BME280;56349;51.816;-0.026;2022-08-21T01:31:15;100951.23;;;27.55;27.59
69239;BME280;56349;51.816;-0.026;2022-08-21T01:33:39;100952.61;;;27.73;27.63
69239;BME280;56349;51.816;-0.026;2022-08-21T01:36:05;100956.30;;;27.97;27.67
69239;BME280;56349;51.816;-0.026;2022-08-21T01:38:30;100959.06;;;27.68;27.70
69239;BME280;56349;51.816;-0.026;2022-08-21T01:40:56;100955.97;;;27.65;27.74
69239;BME280;56349;51.816;-0.026;2022-08-21T01:43:22;100958.01;;;27.61;27.78
69239;BME280;56349;51.816;-0.026;2022-08-21T01:45:48;100959.08;;;27.36;27.81
69239;BME280;56349;51.816;-0.026;2022-08-21T01:48:14;100961.79;;;27.56;27.84
69239;BME280;56349;51.816;-0.026;2022-08-21T01:50:39;100965.10;;;27.78;27.87
69239;BME280;56349;51.816;-0.026;2022-08-21T01:53:06;100967.02;;;27.48;27.92
69239;BME280;56349;51.816;-0.026;2022-08-21T01:55:32;100967.97;;;27.73;27.94
69239;BME280;56349;51.816;-0.026;2022-08-21T01:57:59;100969.35;;;27.44;27.96
69239;BME280;56349;51.816;-0.026;2022-08-21T02:00:24;100968.48;;;27.44;27.97
69239;BME280;56349;51.816;-0.026;2022-08-21T02:02:50;100970.76;;;27.69;27.99
69239;BME280;56349;51.816;-0.026;2022-08-21T02:05:15;100969.05;;;27.40;28.00
69239;BME280;56349;51.816;-0.026;2022-08-21T02:07:41;100969.82;;;27.35;28.04
69239;BME280;56349;51.816;-0.026;2022-08-21T02:10:08;100964.95;;;27.33;28.07
69239;BME280;56349;51.816;-0.026;2022-08-21T02:12:31;100958.10;;;27.57;28.11
69239;BME280;56349;51.816;-0.026;2022-08-21T02:14:57;100955.34;;;27.30;28.11
69239;BME280;56349;51.816;-0.026;2022-08-21T02:17:23;100952.24;;;27.28;28.13
69239;BME280;56349;51.816;-0.026;2022-08-21T02:19:49;100951.79;;;27.24;28.18
69239;BME280;56349;51.816;-0.026;2022-08-21T02:22:15;100953.25;;;27.20;28.22
69239;BME280;56349;51.816;-0.026;2022-08-21T02:24:41;100952.66;;;27.18;28.24
69239;BME280;56349;51.816;-0.026;2022-08-21T02:27:07;100947.53;;;27.43;28.26
69239;BME280;56349;51.816;-0.026;2022-08-21T02:29:33;100944.16;;;27.41;28.28
69239;BME280;56349;51.816;-0.026;2022-08-21T02:31:59;100943.86;;;27.11;28.31
69239;BME280;56349;51.816;-0.026;2022-08-21T02:34:24;100944.16;;;27.36;28.34
69239;BME280;56349;51.816;-0.026;2022-08-21T02:36:50;100942.84;;;27.07;28.35
69239;BME280;56349;51.816;-0.026;2022-08-21T02:39:16;100942.66;;;27.55;28.37
69239;BME280;56349;51.816;-0.026;2022-08-21T02:41:43;100938.15;;;27.52;28.40
69239;BME280;56349;51.816;-0.026;2022-08-21T02:44:07;100937.11;;;27.29;28.41
69239;BME280;56349;51.816;-0.026;2022-08-21T02:46:33;100938.12;;;27.28;28.43
69239;BME280;56349;51.816;-0.026;2022-08-21T02:48:59;100940.29;;;27.27;28.44
69239;BME280;56349;51.816;-0.026;2022-08-21T02:51:25;100938.58;;;26.97;28.47
69239;BME280;56349;51.816;-0.026;2022-08-21T02:53:51;100938.20;;;26.95;28.49
69239;BME280;56349;51.816;-0.026;2022-08-21T02:56:20;100939.11;;;27.20;28.51
69239;BME280;56349;51.816;-0.026;2022-08-21T02:58:46;100939.41;;;27.17;28.54
69239;BME280;56349;51.816;-0.026;2022-08-21T03:01:09;100938.52;;;27.15;28.55
69239;BME280;56349;51.816;-0.026;2022-08-21T03:03:33;100940.45;;;26.87;28.57
69239;BME280;56349;51.816;-0.026;2022-08-21T03:05:59;100940.63;;;27.34;28.59
69239;BME280;56349;51.816;-0.026;2022-08-21T03:08:25;100939.97;;;26.83;28.61
69239;BME280;56349;51.816;-0.026;2022-08-21T03:10:52;100939.58;;;26.81;28.63
69239;BME280;56349;51.816;-0.026;2022-08-21T03:13:18;100937.30;;;27.05;28.66
69239;BME280;56349;51.816;-0.026;2022-08-21T03:15:42;100936.23;;;27.05;28.66
69239;BME280;56349;51.816;-0.026;2022-08-21T03:18:08;100941.54;;;27.04;28.68
69239;BME280;56349;51.816;-0.026;2022-08-21T03:20:33;100941.39;;;27.02;28.69
69239;BME280;56349;51.816;-0.026;2022-08-21T03:22:58;100942.25;;;27.23;28.71
69239;BME280;56349;51.816;-0.026;2022-08-21T03:25:25;100941.34;;;27.04;28.67
69239;BME280;56349;51.816;-0.026;2022-08-21T03:27:48;100938.57;;;27.23;28.71
69239;BME280;56349;51.816;-0.026;2022-08-21T03:30:16;100935.79;;;27.19;28.73
69239;BME280;56349;51.816;-0.026;2022-08-21T03:32:40;100934.24;;;26.95;28.80
69239;BME280;56349;51.816;-0.026;2022-08-21T03:35:06;100935.77;;;26.95;28.86
69239;BME280;56349;51.816;-0.026;2022-08-21T03:37:31;100934.77;;;27.19;28.91
69239;BME280;56349;51.816;-0.026;2022-08-21T03:39:56;100938.00;;;27.25;28.93
69239;BME280;56349;51.816;-0.026;2022-08-21T03:42:22;100940.54;;;26.86;28.91
69239;BME280;56349;51.816;-0.026;2022-08-21T03:44:48;100940.34;;;26.99;28.85
69239;BME280;56349;51.816;-0.026;2022-08-21T03:47:14;100937.34;;;27.62;28.76
69239;BME280;56349;51.816;-0.026;2022-08-21T03:49:40;100936.59;;;27.30;28.62
69239;BME280;56349;51.816;-0.026;2022-08-21T03:52:06;100938.39;;;27.47;28.46
69239;BME280;56349;51.816;-0.026;2022-08-21T03:54:32;100940.53;;;27.60;28.30
69239;BME280;56349;51.816;-0.026;2022-08-21T03:56:58;100944.29;;;27.70;28.15
69239;BME280;56349;51.816;-0.026;2022-08-21T03:59:23;100941.03;;;27.53;28.04
69239;BME280;56349;51.816;-0.026;2022-08-21T04:01:53;100941.81;;;27.78;27.96
69239;BME280;56349;51.816;-0.026;2022-08-21T04:04:14;100948.04;;;27.79;27.90
69239;BME280;56349;51.816;-0.026;2022-08-21T04:06:40;100950.67;;;27.77;27.87
69239;BME280;56349;51.816;-0.026;2022-08-21T04:09:06;100953.25;;;27.73;27.86
69239;BME280;56349;51.816;-0.026;2022-08-21T04:11:32;100952.63;;;27.45;27.88
69239;BME280;56349;51.816;-0.026;2022-08-21T04:13:58;100946.24;;;27.63;27.89
69239;BME280;56349;51.816;-0.026;2022-08-21T04:16:23;100941.88;;;27.58;27.90
69239;BME280;56349;51.816;-0.026;2022-08-21T04:18:49;100935.87;;;27.52;27.93
69239;BME280;56349;51.816;-0.026;2022-08-21T04:21:15;100932.24;;;27.44;27.97
69239;BME280;56349;51.816;-0.026;2022-08-21T04:23:41;100931.69;;;27.14;28.01
69239;BME280;56349;51.816;-0.026;2022-08-21T04:26:07;100930.00;;;27.32;28.04
69239;BME280;56349;51.816;-0.026;2022-08-21T04:28:33;100933.48;;;27.56;28.05
69239;BME280;56349;51.816;-0.026;2022-08-21T04:30:59;100933.37;;;27.23;28.10
69239;BME280;56349;51.816;-0.026;2022-08-21T04:33:25;100935.11;;;27.17;28.14
69239;BME280;56349;51.816;-0.026;2022-08-21T04:35:50;100937.93;;;27.12;28.19
69239;BME280;56349;51.816;-0.026;2022-08-21T04:38:16;100939.06;;;27.07;28.23
69239;BME280;56349;51.816;-0.026;2022-08-21T04:40:42;100938.46;;;27.02;28.27
69239;BME280;56349;51.816;-0.026;2022-08-21T04:43:10;100941.84;;;27.45;28.32
69239;BME280;56349;51.816;-0.026;2022-08-21T04:45:36;100940.87;;;27.19;28.36
69239;BME280;56349;51.816;-0.026;2022-08-21T04:48:02;100939.05;;;27.38;28.39
69239;BME280;56349;51.816;-0.026;2022-08-21T04:50:29;100945.26;;;27.10;28.44
69239;BME280;56349;51.816;-0.026;2022-08-21T04:52:52;100952.71;;;27.29;28.48
69239;BME280;56349;51.816;-0.026;2022-08-21T04:55:17;100957.83;;;26.77;28.50
69239;BME280;56349;51.816;-0.026;2022-08-21T04:57:43;100962.99;;;26.99;28.55
69239;BME280;56349;51.816;-0.026;2022-08-21T05:00:09;100966.54;;;26.69;28.58
69239;BME280;56349;51.816;-0.026;2022-08-21T05:02:33;100968.59;;;27.15;28.60
69239;BME280;56349;51.816;-0.026;2022-08-21T05:04:59;100969.87;;;27.11;28.64
69239;BME280;56349;51.816;-0.026;2022-08-21T05:07:28;100962.47;;;26.84;28.68
69239;BME280;56349;51.816;-0.026;2022-08-21T05:09:50;100961.02;;;26.82;28.71
69239;BME280;56349;51.816;-0.026;2022-08-21T05:12:15;100962.41;;;26.80;28.73
69239;BME280;56349;51.816;-0.026;2022-08-21T05:14:41;100964.66;;;26.99;28.76
69239;BME280;56349;51.816;-0.026;2022-08-21T05:17:07;100966.16;;;26.97;28.79
69239;BME280;56349;51.816;-0.026;2022-08-21T05:19:33;100965.36;;;26.95;28.80
69239;BME280;56349;51.816;-0.026;2022-08-21T05:21:59;100964.59;;;26.93;28.82
69239;BME280;56349;51.816;-0.026;2022-08-21T05:24:26;100964.25;;;26.91;28.84
69239;BME280;56349;51.816;-0.026;2022-08-21T05:26:51;100966.24;;;26.89;28.87
69239;BME280;56349;51.816;-0.026;2022-08-21T05:29:17;100969.14;;;26.86;28.90
69239;BME280;56349;51.816;-0.026;2022-08-21T05:31:43;100972.54;;;26.83;28.93
69239;BME280;56349;51.816;-0.026;2022-08-21T05:34:08;100973.28;;;26.80;28.96
69239;BME280;56349;51.816;-0.026;2022-08-21T05:36:34;100975.98;;;26.78;29.00
69239;BME280;56349;51.816;-0.026;2022-08-21T05:38:59;100975.68;;;26.77;29.03
69239;BME280;56349;51.816;-0.026;2022-08-21T05:41:26;100982.91;;;26.78;29.18
69239;BME280;56349;51.816;-0.026;2022-08-21T05:43:51;100989.78;;;26.77;29.43
69239;BME280;56349;51.816;-0.026;2022-08-21T05:46:17;100988.96;;;26.81;29.71
69239;BME280;56349;51.816;-0.026;2022-08-21T05:48:42;100992.74;;;26.63;30.04
69239;BME280;56349;51.816;-0.026;2022-08-21T05:51:10;100995.04;;;26.67;30.40
69239;BME280;56349;51.816;-0.026;2022-08-21T05:53:35;101001.63;;;26.77;30.59
69239;BME280;56349;51.816;-0.026;2022-08-21T05:56:00;101013.24;;;26.89;30.65
69239;BME280;56349;51.816;-0.026;2022-08-21T05:58:26;101013.09;;;26.79;30.62
69239;BME280;56349;51.816;-0.026;2022-08-21T06:00:52;101014.18;;;26.99;30.58
69239;BME280;56349;51.816;-0.026;2022-08-21T06:03:20;101015.09;;;27.20;30.46
69239;BME280;56349;51.816;-0.026;2022-08-21T06:05:43;101017.97;;;27.45;30.32
69239;BME280;56349;51.816;-0.026;2022-08-21T06:08:09;101017.67;;;27.69;30.17
69239;BME280;56349;51.816;-0.026;2022-08-21T06:10:35;101015.03;;;27.72;30.02
69239;BME280;56349;51.816;-0.026;2022-08-21T06:13:01;101011.49;;;27.69;29.83
69239;BME280;56349;51.816;-0.026;2022-08-21T06:15:27;101009.13;;;27.92;29.66
69239;BME280;56349;51.816;-0.026;2022-08-21T06:17:53;101004.68;;;28.12;29.47
69239;BME280;56349;51.816;-0.026;2022-08-21T06:20:19;101002.65;;;28.33;29.28
69239;BME280;56349;51.816;-0.026;2022-08-21T06:22:45;101002.95;;;28.08;29.10
69239;BME280;56349;51.816;-0.026;2022-08-21T06:25:11;101004.88;;;28.50;28.92
69239;BME280;56349;51.816;-0.026;2022-08-21T06:27:37;100999.02;;;28.47;28.73
69239;BME280;56349;51.816;-0.026;2022-08-21T06:30:02;101004.44;;;29.07;28.56
69239;BME280;56349;51.816;-0.026;2022-08-21T06:32:27;101009.55;;;28.76;28.44
69239;BME280;56349;51.816;-0.026;2022-08-21T06:34:53;101011.94;;;28.89;28.30
69239;BME280;56349;51.816;-0.026;2022-08-21T06:37:19;101015.41;;;29.01;28.07
69239;BME280;56349;51.816;-0.026;2022-08-21T06:39:44;101012.54;;;29.11;27.83
69239;BME280;56349;51.816;-0.026;2022-08-21T06:42:13;101012.62;;;29.20;27.62
69239;BME280;56349;51.816;-0.026;2022-08-21T06:44:35;101016.98;;;29.27;27.44
69239;BME280;56349;51.816;-0.026;2022-08-21T06:47:01;101020.26;;;29.34;27.29
69239;BME280;56349;51.816;-0.026;2022-08-21T06:49:27;101017.01;;;29.13;27.18
69239;BME280;56349;51.816;-0.026;2022-08-21T06:51:53;101015.99;;;29.16;27.08
69239;BME280;56349;51.816;-0.026;2022-08-21T06:54:19;101009.16;;;29.21;26.98
69239;BME280;56349;51.816;-0.026;2022-08-21T06:56:45;101007.64;;;29.26;26.87
69239;BME280;56349;51.816;-0.026;2022-08-21T06:59:11;101008.38;;;29.29;26.78
69239;BME280;56349;51.816;-0.026;2022-08-21T07:01:37;101009.36;;;29.36;26.66
69239;BME280;56349;51.816;-0.026;2022-08-21T07:04:03;101005.96;;;29.41;26.56
69239;BME280;56349;51.816;-0.026;2022-08-21T07:06:28;101003.77;;;29.44;26.47
69239;BME280;56349;51.816;-0.026;2022-08-21T07:08:53;100999.21;;;29.51;26.38
69239;BME280;56349;51.816;-0.026;2022-08-21T07:11:21;100995.62;;;29.53;26.37
69239;BME280;56349;51.816;-0.026;2022-08-21T07:13:45;100995.90;;;29.59;26.31
69239;BME280;56349;51.816;-0.026;2022-08-21T07:16:11;100991.37;;;29.64;26.26
69239;BME280;56349;51.816;-0.026;2022-08-21T07:18:37;100990.49;;;29.44;26.23
69239;BME280;56349;51.816;-0.026;2022-08-21T07:21:04;100986.60;;;29.70;26.19
69239;BME280;56349;51.816;-0.026;2022-08-21T07:23:30;100983.42;;;29.73;26.17
69239;BME280;56349;51.816;-0.026;2022-08-21T07:25:54;100983.65;;;29.51;26.13
69239;BME280;56349;51.816;-0.026;2022-08-21T07:28:20;100981.10;;;29.56;26.13
69239;BME280;56349;51.816;-0.026;2022-08-21T07:30:51;100973.14;;;29.59;26.15
69239;BME280;56349;51.816;-0.026;2022-08-21T07:33:12;100973.00;;;29.62;26.21
69239;BME280;56349;51.816;-0.026;2022-08-21T07:35:38;100972.15;;;29.67;26.23
69239;BME280;56349;51.816;-0.026;2022-08-21T07:38:03;100974.92;;;29.69;26.18
69239;BME280;56349;51.816;-0.026;2022-08-21T07:40:29;100974.88;;;29.69;26.12
69239;BME280;56349;51.816;-0.026;2022-08-21T07:42:55;100973.82;;;29.40;26.11
69239;BME280;56349;51.816;-0.026;2022-08-21T07:45:22;100970.64;;;29.69;26.05
69239;BME280;56349;51.816;-0.026;2022-08-21T07:47:46;100970.34;;;29.72;25.98
69239;BME280;56349;51.816;-0.026;2022-08-21T07:50:13;100970.83;;;29.73;25.93
69239;BME280;56349;51.816;-0.026;2022-08-21T07:52:37;100970.15;;;29.78;25.86
69239;BME280;56349;51.816;-0.026;2022-08-21T07:55:03;100973.98;;;29.79;25.82
69239;BME280;56349;51.816;-0.026;2022-08-21T07:57:28;100979.14;;;29.78;25.82
69239;BME280;56349;51.816;-0.026;2022-08-21T07:59:54;100982.89;;;30.01;25.79
69239;BME280;56349;51.816;-0.026;2022-08-21T08:02:24;100981.69;;;29.80;25.73
69239;BME280;56349;51.816;-0.026;2022-08-21T08:04:45;100978.92;;;29.82;25.70
69239;BME280;56349;51.816;-0.026;2022-08-21T08:07:11;100973.18;;;29.82;25.69
69239;BME280;56349;51.816;-0.026;2022-08-21T08:09:37;100966.23;;;29.83;25.66
69239;BME280;56349;51.816;-0.026;2022-08-21T08:12:03;100964.96;;;29.87;25.59
69239;BME280;56349;51.816;-0.026;2022-08-21T08:14:28;100966.72;;;29.88;25.56
69239;BME280;56349;51.816;-0.026;2022-08-21T08:16:54;100970.49;;;29.91;25.53
69239;BME280;56349;51.816;-0.026;2022-08-21T08:19:20;100974.86;;;29.90;25.71
69239;BME280;56349;51.816;-0.026;2022-08-21T08:21:45;100973.17;;;29.81;26.03
69239;BME280;56349;51.816;-0.026;2022-08-21T08:24:11;100970.61;;;29.80;26.11
69239;BME280;56349;51.816;-0.026;2022-08-21T08:26:37;100968.03;;;29.10;26.22
69239;BME280;56349;51.816;-0.026;2022-08-21T08:29:03;100967.51;;;29.44;26.34
69239;BME280;56349;51.816;-0.026;2022-08-21T08:31:29;100967.60;;;29.19;26.54
69239;BME280;56349;51.816;-0.026;2022-08-21T08:33:55;100963.91;;;29.00;26.64
69239;BME280;56349;51.816;-0.026;2022-08-21T08:38:47;100958.83;;;29.14;27.09
69239;BME280;56349;51.816;-0.026;2022-08-21T08:41:14;100957.10;;;28.86;27.29
69239;BME280;56349;51.816;-0.026;2022-08-21T08:43:37;100956.99;;;28.82;27.44
69239;BME280;56349;51.816;-0.026;2022-08-21T08:46:09;100952.90;;;28.78;27.44
69239;BME280;56349;51.816;-0.026;2022-08-21T08:48:40;100950.53;;;28.97;27.43
69239;BME280;56349;51.816;-0.026;2022-08-21T08:50:57;100951.68;;;28.64;27.45
69239;BME280;56349;51.816;-0.026;2022-08-21T08:53:23;100953.74;;;28.85;27.48
69239;BME280;56349;51.816;-0.026;2022-08-21T08:55:46;100951.41;;;28.78;27.50
69239;BME280;56349;51.816;-0.026;2022-08-21T08:58:18;100950.53;;;28.44;27.52
69239;BME280;56349;51.816;-0.026;2022-08-21T09:00:38;100955.44;;;28.68;27.57
69239;BME280;56349;51.816;-0.026;2022-08-21T09:03:03;100958.49;;;28.67;27.59
69239;BME280;56349;51.816;-0.026;2022-08-21T09:05:43;100957.91;;;28.66;27.53
69239;BME280;56349;51.816;-0.026;2022-08-21T09:10:20;100959.58;;;28.62;27.41
69239;BME280;56349;51.816;-0.026;2022-08-21T09:12:51;100962.21;;;28.60;27.32
69239;BME280;56349;51.816;-0.026;2022-08-21T09:15:16;100962.70;;;28.53;27.32
69239;BME280;56349;51.816;-0.026;2022-08-21T09:17:51;100960.89;;;28.64;27.23
69239;BME280;56349;51.816;-0.026;2022-08-21T09:20:11;100961.99;;;28.27;27.16
69239;BME280;56349;51.816;-0.026;2022-08-21T09:22:33;100957.07;;;28.32;27.15
69239;BME280;56349;51.816;-0.026;2022-08-21T09:25:01;100961.67;;;28.34;27.26
69239;BME280;56349;51.816;-0.026;2022-08-21T09:27:19;100957.60;;;28.08;27.36
69239;BME280;56349;51.816;-0.026;2022-08-21T09:29:45;100960.12;;;28.17;27.51
69239;BME280;56349;51.816;-0.026;2022-08-21T09:32:15;100957.03;;;27.73;27.71
69239;BME280;56349;51.816;-0.026;2022-08-21T09:34:33;100961.23;;;27.82;27.93
69239;BME280;56349;51.816;-0.026;2022-08-21T09:36:59;100969.68;;;27.40;28.08
69239;BME280;56349;51.816;-0.026;2022-08-21T09:39:27;100971.65;;;27.50;28.16
69239;BME280;56349;51.816;-0.026;2022-08-21T09:41:57;100976.10;;;27.33;28.35
69239;BME280;56349;51.816;-0.026;2022-08-21T09:44:24;100971.39;;;27.20;28.35
69239;BME280;56349;51.816;-0.026;2022-08-21T09:46:49;100974.51;;;27.31;28.47
69239;BME280;56349;51.816;-0.026;2022-08-21T09:49:08;100979.32;;;27.18;28.53
69239;BME280;56349;51.816;-0.026;2022-08-21T09:51:35;100985.43;;;27.03;28.52
69239;BME280;56349;51.816;-0.026;2022-08-21T09:56:28;100985.05;;;26.96;28.56
69239;BME280;56349;51.816;-0.026;2022-08-21T09:58:51;100987.67;;;26.57;28.48
69239;BME280;56349;51.816;-0.026;2022-08-21T10:01:18;100989.69;;;26.70;28.57
69239;BME280;56349;51.816;-0.026;2022-08-21T10:03:42;100987.32;;;26.34;28.80
69239;BME280;56349;51.816;-0.026;2022-08-21T10:06:09;100982.93;;;26.29;29.02
69239;BME280;56349;51.816;-0.026;2022-08-21T10:08:36;100982.12;;;26.79;29.06
69239;BME280;56349;51.816;-0.026;2022-08-21T10:11:05;100983.17;;;26.57;29.19
69239;BME280;56349;51.816;-0.026;2022-08-21T10:13:33;100984.66;;;26.79;29.25
69239;BME280;56349;51.816;-0.026;2022-08-21T10:15:59;100985.34;;;26.80;29.09
69239;BME280;56349;51.816;-0.026;2022-08-21T10:18:24;100986.23;;;26.57;29.08
69239;BME280;56349;51.816;-0.026;2022-08-21T10:20:46;100986.07;;;26.76;29.24
69239;BME280;56349;51.816;-0.026;2022-08-21T10:23:24;100987.20;;;26.51;29.21
69239;BME280;56349;51.816;-0.026;2022-08-21T10:25:40;100985.23;;;26.49;29.19
69239;BME280;56349;51.816;-0.026;2022-08-21T10:28:06;100984.02;;;26.73;29.24
69239;BME280;56349;51.816;-0.026;2022-08-21T10:30:35;100985.85;;;26.52;29.28
69239;BME280;56349;51.816;-0.026;2022-08-21T10:33:04;100985.52;;;26.79;29.28
69239;BME280;56349;51.816;-0.026;2022-08-21T10:35:23;100987.75;;;26.60;29.31
69239;BME280;56349;51.816;-0.026;2022-08-21T10:37:53;100986.02;;;26.85;29.32
69239;BME280;56349;51.816;-0.026;2022-08-21T10:40:15;100980.68;;;26.88;29.35
69239;BME280;56349;51.816;-0.026;2022-08-21T10:42:41;100975.13;;;26.90;29.34
69239;BME280;56349;51.816;-0.026;2022-08-21T10:45:11;100978.67;;;26.74;29.32
69239;BME280;56349;51.816;-0.026;2022-08-21T10:47:32;100973.10;;;26.78;29.29
69239;BME280;56349;51.816;-0.026;2022-08-21T10:49:58;100972.70;;;27.03;29.28
69239;BME280;56349;51.816;-0.026;2022-08-21T10:52:32;100968.49;;;26.80;29.30
69239;BME280;56349;51.816;-0.026;2022-08-21T10:54:48;100969.42;;;26.82;29.31
69239;BME280;56349;51.816;-0.026;2022-08-21T10:57:16;100968.78;;;27.08;29.29
69239;BME280;56349;51.816;-0.026;2022-08-21T10:59:39;100967.45;;;26.56;29.11
69239;BME280;56349;51.816;-0.026;2022-08-21T11:02:02;100965.23;;;26.77;29.15
69239;BME280;56349;51.816;-0.026;2022-08-21T11:04:28;100962.39;;;26.92;29.19
69239;BME280;56349;51.816;-0.026;2022-08-21T11:06:57;100962.22;;;26.86;29.31
69239;BME280;56349;51.816;-0.026;2022-08-21T11:09:18;100962.60;;;26.60;29.35
69239;BME280;56349;51.816;-0.026;2022-08-21T11:11:45;100963.03;;;26.75;29.43
69239;BME280;56349;51.816;-0.026;2022-08-21T11:14:20;100968.89;;;26.49;29.48
69239;BME280;56349;51.816;-0.026;2022-08-21T11:16:36;100970.89;;;26.68;29.58
69239;BME280;56349;51.816;-0.026;2022-08-21T11:19:02;100969.95;;;26.66;29.59
69239;BME280;56349;51.816;-0.026;2022-08-21T11:21:37;100971.74;;;26.65;29.57
69239;BME280;56349;51.816;-0.026;2022-08-21T11:23:54;100974.74;;;26.39;29.42
69239;BME280;56349;51.816;-0.026;2022-08-21T11:26:18;100971.69;;;26.32;29.35
69239;BME280;56349;51.816;-0.026;2022-08-21T11:28:46;100971.93;;;26.70;29.40
69239;BME280;56349;51.816;-0.026;2022-08-21T11:31:17;100975.77;;;26.48;29.60
69239;BME280;56349;51.816;-0.026;2022-08-21T11:33:45;100973.49;;;26.50;29.83
69239;BME280;56349;51.816;-0.026;2022-08-21T11:36:02;100979.63;;;26.34;29.96
69239;BME280;56349;51.816;-0.026;2022-08-21T11:38:28;100981.78;;;26.56;29.80
69239;BME280;56349;51.816;-0.026;2022-08-21T11:40:59;100986.16;;;26.53;29.56
69239;BME280;56349;51.816;-0.026;2022-08-21T11:43:22;100994.21;;;26.52;29.62
69239;BME280;56349;51.816;-0.026;2022-08-21T11:45:45;100997.60;;;26.32;29.66
69239;BME280;56349;51.816;-0.026;2022-08-21T11:48:14;100993.88;;;26.54;29.68
69239;BME280;56349;51.816;-0.026;2022-08-21T11:50:32;100994.61;;;26.52;29.73
69239;BME280;56349;51.816;-0.026;2022-08-21T11:53:03;100988.00;;;26.54;29.72
69239;BME280;56349;51.816;-0.026;2022-08-21T11:55:31;100985.90;;;26.55;29.57
69239;BME280;56349;51.816;-0.026;2022-08-21T11:57:53;100983.63;;;26.32;29.47
69239;BME280;56349;51.816;-0.026;2022-08-21T12:00:19;100987.86;;;26.56;29.44
69239;BME280;56349;51.816;-0.026;2022-08-21T12:02:45;100990.01;;;26.09;29.43
69239;BME280;56349;51.816;-0.026;2022-08-21T12:05:09;100982.02;;;26.58;29.36
69239;BME280;56349;51.816;-0.026;2022-08-21T12:07:36;100982.85;;;26.61;29.32
69239;BME280;56349;51.816;-0.026;2022-08-21T12:09:59;100979.06;;;26.63;29.31
69239;BME280;56349;51.816;-0.026;2022-08-21T12:12:27;100981.58;;;26.88;29.30
69239;BME280;56349;51.816;-0.026;2022-08-21T12:15:02;100981.07;;;26.39;29.25
69239;BME280;56349;51.816;-0.026;2022-08-21T12:17:18;100992.01;;;26.56;29.26
69239;BME280;56349;51.816;-0.026;2022-08-21T12:19:40;101002.10;;;26.50;29.33
69239;BME280;56349;51.816;-0.026;2022-08-21T12:22:11;101003.24;;;26.46;29.29
69239;BME280;56349;51.816;-0.026;2022-08-21T12:24:35;101002.71;;;26.41;29.20
69239;BME280;56349;51.816;-0.026;2022-08-21T12:26:58;101000.53;;;26.12;29.28
69239;BME280;56349;51.816;-0.026;2022-08-21T12:29:25;101004.88;;;26.53;29.32
69239;BME280;56349;51.816;-0.026;2022-08-21T12:31:53;100996.98;;;26.28;29.35
69239;BME280;56349;51.816;-0.026;2022-08-21T12:34:14;100998.64;;;26.48;29.34
69239;BME280;56349;51.816;-0.026;2022-08-21T12:36:43;100998.00;;;26.51;29.37
69239;BME280;56349;51.816;-0.026;2022-08-21T12:39:12;100999.82;;;26.80;29.37